Time;durP1;ratioP1;P1;durP2;ratioP2;P2;SDS_P1;SDS_P2;PMS_P1;PMS_P2;Temp;Humidity;BMP_temperature;BMP_pressure;BME280_temperature;BME280_humidity;BME280_pressure;Samples;Min_cycle;Max_cycle;Signal;HPM_P1;HPM_P2
2021/11/23 00:00:14;;;;;;;396.60;378.17;;;3.40;99.90;;;;;;4392194;32;20266;-60
2021/11/23 00:02:44;;;;;;;391.00;372.73;;;3.40;99.90;;;;;;4391738;32;20223;-60
2021/11/23 00:05:13;;;;;;;383.07;365.57;;;3.40;99.90;;;;;;4392249;32;20214;-60
2021/11/23 00:07:41;;;;;;;363.20;346.50;;;3.40;99.90;;;;;;4385168;32;20248;-60
2021/11/23 00:10:09;;;;;;;360.57;344.30;;;3.40;99.90;;;;;;4390004;32;20173;-60
2021/11/23 00:12:36;;;;;;;370.77;353.93;;;3.40;99.90;;;;;;4379713;32;20623;-60
2021/11/23 00:15:04;;;;;;;352.73;336.63;;;3.50;99.90;;;;;;4379136;32;20237;-60
2021/11/23 00:17:31;;;;;;;359.23;342.83;;;3.60;99.90;;;;;;4381199;32;20164;-61
2021/11/23 00:19:58;;;;;;;378.23;360.90;;;3.60;99.90;;;;;;4387324;32;20179;-60
2021/11/23 00:22:25;;;;;;;364.27;347.83;;;3.60;99.90;;;;;;4381798;32;20159;-60
2021/11/23 00:24:53;;;;;;;360.97;344.73;;;3.70;99.90;;;;;;4383399;32;20156;-61
2021/11/23 00:27:20;;;;;;;367.73;350.63;;;3.80;99.90;;;;;;4377738;32;20196;-60
2021/11/23 00:29:47;;;;;;;362.37;345.90;;;3.80;99.90;;;;;;4382122;32;20586;-60
2021/11/23 00:32:14;;;;;;;360.70;344.43;;;3.80;99.90;;;;;;4384149;32;20148;-60
2021/11/23 00:34:40;;;;;;;343.20;327.80;;;3.90;99.90;;;;;;4385117;32;20148;-60
2021/11/23 00:37:07;;;;;;;334.73;319.97;;;3.80;99.90;;;;;;4385375;32;20259;-60
2021/11/23 00:39:35;;;;;;;343.63;328.27;;;3.80;99.90;;;;;;4389193;32;20160;-60
2021/11/23 00:42:04;;;;;;;357.17;341.10;;;3.90;99.90;;;;;;4389858;32;20179;-60
2021/11/23 00:44:30;;;;;;;342.33;326.90;;;3.80;99.90;;;;;;4389117;32;20563;-60
2021/11/23 00:46:57;;;;;;;334.37;319.33;;;3.80;99.90;;;;;;4390480;32;20160;-60
2021/11/23 00:49:24;;;;;;;332.97;317.73;;;3.90;99.90;;;;;;4390683;32;20231;-61
2021/11/23 00:51:51;;;;;;;340.83;325.27;;;3.90;99.90;;;;;;4390282;32;20144;-61
2021/11/23 00:54:19;;;;;;;341.30;325.97;;;3.90;99.90;;;;;;4390311;32;20590;-61
2021/11/23 00:56:46;;;;;;;341.43;325.73;;;4.00;99.90;;;;;;4390261;32;20254;-61
2021/11/23 00:59:15;;;;;;;343.50;328.07;;;4.10;99.90;;;;;;4391928;32;20192;-61
2021/11/23 01:01:42;;;;;;;345.07;329.57;;;4.00;99.90;;;;;;4388464;32;20160;-61
2021/11/23 01:04:09;;;;;;;335.27;320.17;;;4.10;99.90;;;;;;4391692;32;20216;-61
2021/11/23 01:06:35;;;;;;;330.33;315.60;;;4.10;99.90;;;;;;4391063;32;20172;-61
2021/11/23 01:09:03;;;;;;;337.57;322.57;;;4.20;99.90;;;;;;4389591;32;20182;-61
2021/11/23 01:11:29;;;;;;;341.90;326.57;;;4.20;99.90;;;;;;4389480;32;20258;-60
2021/11/23 01:13:56;;;;;;;345.37;330.23;;;4.30;99.90;;;;;;4390133;32;20174;-60
2021/11/23 01:16:25;;;;;;;349.13;334.03;;;4.20;99.90;;;;;;4389846;32;20182;-60
2021/11/23 01:18:51;;;;;;;332.53;317.83;;;4.30;99.90;;;;;;4385301;32;20163;-60
2021/11/23 01:21:21;;;;;;;350.83;335.20;;;4.30;99.90;;;;;;4390949;32;20163;-59
2021/11/23 01:23:48;;;;;;;350.50;334.80;;;4.30;99.90;;;;;;4389494;32;20199;-62
2021/11/23 01:26:16;;;;;;;347.17;331.33;;;4.30;99.90;;;;;;4390071;32;20167;-60
2021/11/23 01:28:42;;;;;;;345.07;330.00;;;4.30;99.90;;;;;;4391743;32;20584;-61
2021/11/23 01:31:09;;;;;;;344.20;328.73;;;4.40;99.90;;;;;;4389996;32;20599;-61
2021/11/23 01:33:37;;;;;;;341.53;325.53;;;4.40;99.90;;;;;;4390033;32;20182;-61
2021/11/23 01:36:05;;;;;;;335.60;320.97;;;4.50;99.90;;;;;;4387611;32;20232;-59
2021/11/23 01:38:32;;;;;;;355.43;340.03;;;4.50;99.90;;;;;;4390653;32;20160;-59
2021/11/23 01:40:59;;;;;;;347.17;331.83;;;4.60;99.90;;;;;;4391109;32;20584;-59
2021/11/23 01:43:26;;;;;;;369.03;352.93;;;4.70;99.90;;;;;;4391278;32;20171;-59
2021/11/23 01:45:56;;;;;;;352.00;336.77;;;4.60;99.90;;;;;;4389671;32;20175;-60
2021/11/23 01:48:23;;;;;;;358.27;342.73;;;4.70;99.90;;;;;;4390924;32;20227;-60
2021/11/23 01:50:54;;;;;;;361.77;345.57;;;4.70;99.90;;;;;;4392502;32;20164;-61
2021/11/23 01:53:21;;;;;;;357.43;341.93;;;4.70;99.90;;;;;;4388761;32;20147;-61
2021/11/23 01:55:51;;;;;;;367.67;351.33;;;4.80;99.90;;;;;;4392517;32;20274;-61
2021/11/23 01:58:18;;;;;;;361.93;345.77;;;4.80;99.90;;;;;;4393744;32;20202;-61
2021/11/23 02:00:47;;;;;;;358.83;343.30;;;4.80;99.90;;;;;;4392320;32;20160;-61
2021/11/23 02:03:15;;;;;;;369.23;353.20;;;4.80;99.90;;;;;;4392397;32;20189;-61
2021/11/23 02:05:42;;;;;;;349.63;333.97;;;4.90;99.90;;;;;;4392383;32;20152;-61
2021/11/23 02:08:11;;;;;;;356.70;340.50;;;4.90;99.90;;;;;;4391660;32;20159;-59
2021/11/23 02:10:39;;;;;;;362.40;346.47;;;4.90;99.90;;;;;;4383243;32;20616;-61
2021/11/23 02:13:05;;;;;;;360.47;344.83;;;4.90;99.90;;;;;;4392690;32;20456;-61
2021/11/23 02:15:32;;;;;;;359.33;343.60;;;4.90;99.90;;;;;;4391803;32;20247;-59
2021/11/23 02:17:59;;;;;;;363.17;347.43;;;5.00;99.90;;;;;;4393327;32;20233;-61
2021/11/23 02:20:28;;;;;;;375.20;358.77;;;5.10;99.90;;;;;;4392881;32;20183;-61
2021/11/23 02:22:55;;;;;;;364.33;348.03;;;5.10;99.90;;;;;;4392194;32;20148;-60
2021/11/23 02:25:22;;;;;;;374.77;358.03;;;5.10;99.90;;;;;;4392961;32;20144;-60
2021/11/23 02:27:49;;;;;;;356.77;341.00;;;5.10;99.90;;;;;;4391101;32;20235;-59
2021/11/23 02:30:17;;;;;;;365.70;349.93;;;5.10;99.90;;;;;;4392161;32;20227;-60
2021/11/23 02:32:51;;;;;;;359.03;343.53;;;5.10;99.90;;;;;;4391952;32;20150;-60
2021/11/23 02:35:19;;;;;;;360.97;345.23;;;5.00;99.90;;;;;;4384808;32;20152;-59
2021/11/23 02:37:52;;;;;;;367.93;351.13;;;5.10;99.90;;;;;;4389569;32;20172;-60
2021/11/23 02:40:20;;;;;;;358.13;342.63;;;5.10;99.90;;;;;;4392311;32;20250;-60
2021/11/23 02:42:48;;;;;;;367.60;351.30;;;5.00;99.90;;;;;;4390867;32;20180;-60
2021/11/23 02:45:18;;;;;;;362.73;347.10;;;5.00;99.90;;;;;;4391328;32;20182;-60
2021/11/23 02:47:45;;;;;;;370.03;353.73;;;5.10;99.90;;;;;;4391522;32;20164;-60
2021/11/23 02:50:15;;;;;;;389.73;372.77;;;5.10;99.90;;;;;;4393213;32;20174;-60
2021/11/23 02:52:43;;;;;;;372.67;356.50;;;5.10;99.90;;;;;;4393030;32;20230;-59
2021/11/23 02:55:12;;;;;;;363.63;347.87;;;5.10;99.90;;;;;;4392051;32;20227;-59
2021/11/23 02:57:39;;;;;;;369.20;352.97;;;5.20;99.90;;;;;;4391497;32;20179;-60
2021/11/23 03:00:09;;;;;;;360.43;345.10;;;5.20;99.90;;;;;;4391384;32;20290;-60
2021/11/23 03:02:36;;;;;;;390.53;372.27;;;5.30;99.90;;;;;;4393303;32;20230;-60
2021/11/23 03:05:04;;;;;;;396.73;379.73;;;5.30;99.90;;;;;;4391021;32;20651;-60
2021/11/23 03:07:31;;;;;;;364.13;348.67;;;5.30;99.90;;;;;;4392461;32;20206;-59
2021/11/23 03:09:57;;;;;;;367.67;351.90;;;5.40;99.90;;;;;;4393003;32;20152;-59
2021/11/23 03:12:27;;;;;;;369.50;353.73;;;5.40;99.90;;;;;;4390848;32;20549;-59
2021/11/23 03:14:54;;;;;;;383.33;366.73;;;5.40;99.90;;;;;;4391367;32;20498;-60
2021/11/23 03:17:21;;;;;;;374.87;358.83;;;5.40;99.90;;;;;;4390382;32;20220;-59
2021/11/23 03:19:50;;;;;;;363.93;348.33;;;5.40;99.90;;;;;;4390957;32;20148;-61
2021/11/23 03:22:17;;;;;;;399.03;381.87;;;5.30;99.90;;;;;;4392888;32;20478;-60
2021/11/23 03:24:44;;;;;;;377.13;360.37;;;5.40;99.90;;;;;;4391387;32;20156;-61
2021/11/23 03:27:13;;;;;;;378.93;362.53;;;5.30;99.90;;;;;;4391402;32;20210;-61
2021/11/23 03:29:42;;;;;;;374.53;358.53;;;5.20;99.90;;;;;;4390938;32;20262;-61
2021/11/23 03:32:11;;;;;;;388.70;371.87;;;5.30;99.90;;;;;;4391139;32;20255;-61
2021/11/23 03:34:39;;;;;;;397.37;380.17;;;5.20;99.90;;;;;;4389925;32;20188;-60
2021/11/23 03:37:07;;;;;;;372.77;356.30;;;5.20;99.90;;;;;;4390691;32;20148;-61
2021/11/23 03:39:34;;;;;;;385.77;368.83;;;5.20;99.90;;;;;;4391110;32;20232;-61
2021/11/23 03:42:01;;;;;;;374.60;358.43;;;5.30;99.90;;;;;;4391257;32;20173;-61
2021/11/23 03:44:28;;;;;;;364.63;348.70;;;5.20;99.90;;;;;;4392367;32;20166;-61
2021/11/23 03:46:56;;;;;;;380.67;364.03;;;5.30;99.90;;;;;;4391318;32;20182;-60
2021/11/23 03:49:23;;;;;;;377.77;361.87;;;5.20;99.90;;;;;;4390822;32;20218;-61
2021/11/23 03:51:50;;;;;;;379.07;362.67;;;5.30;99.90;;;;;;4389334;32;20206;-61
2021/11/23 03:54:17;;;;;;;379.33;363.00;;;5.20;99.90;;;;;;4392419;32;20580;-61
2021/11/23 03:56:44;;;;;;;370.93;355.07;;;5.30;99.90;;;;;;4390761;32;20235;-61
2021/11/23 03:59:11;;;;;;;394.93;377.73;;;5.30;99.90;;;;;;4390849;32;20236;-60
2021/11/23 04:01:38;;;;;;;386.87;370.27;;;5.30;99.90;;;;;;4391264;32;20545;-61
2021/11/23 04:04:06;;;;;;;400.10;382.67;;;5.40;99.90;;;;;;4378846;32;20170;-61
2021/11/23 04:06:33;;;;;;;396.10;378.93;;;5.40;99.90;;;;;;4390161;32;20597;-60
2021/11/23 04:09:00;;;;;;;387.77;371.23;;;5.40;99.90;;;;;;4389874;32;20200;-61
2021/11/23 04:11:27;;;;;;;400.60;383.53;;;5.50;99.90;;;;;;4392086;32;20148;-60
2021/11/23 04:13:53;;;;;;;406.93;389.10;;;5.50;99.90;;;;;;4392223;32;20182;-61
2021/11/23 04:16:23;;;;;;;384.70;367.77;;;5.60;99.90;;;;;;4391305;32;20610;-61
2021/11/23 04:18:50;;;;;;;396.00;378.83;;;5.60;99.90;;;;;;4390555;32;20187;-61
2021/11/23 04:21:19;;;;;;;381.87;365.37;;;5.60;99.90;;;;;;4391690;32;20487;-61
2021/11/23 04:23:46;;;;;;;391.17;374.03;;;5.60;99.90;;;;;;4391668;32;20503;-60
2021/11/23 04:26:13;;;;;;;392.30;375.43;;;5.70;99.90;;;;;;4390178;32;20636;-61
2021/11/23 04:28:40;;;;;;;392.20;375.17;;;5.70;99.90;;;;;;4392218;32;20183;-61
2021/11/23 04:31:07;;;;;;;414.67;396.80;;;5.70;99.90;;;;;;4390653;32;20211;-60
2021/11/23 04:33:35;;;;;;;412.77;394.53;;;5.70;99.90;;;;;;4390549;32;20279;-60
2021/11/23 04:36:02;;;;;;;409.73;391.67;;;5.90;99.90;;;;;;4390291;32;20168;-60
2021/11/23 04:38:30;;;;;;;383.47;366.87;;;5.80;99.90;;;;;;4390642;32;20160;-61
2021/11/23 04:40:57;;;;;;;396.53;379.17;;;5.80;99.90;;;;;;4390356;32;20143;-60
2021/11/23 04:43:24;;;;;;;403.37;385.80;;;5.80;99.90;;;;;;4335408;32;1660365;-61
2021/11/23 04:45:50;;;;;;;399.73;382.23;;;5.80;99.90;;;;;;4390699;32;20589;-60
2021/11/23 04:48:17;;;;;;;400.53;383.37;;;5.80;99.90;;;;;;4390162;32;20175;-60
2021/11/23 04:50:44;;;;;;;396.27;379.07;;;5.80;99.90;;;;;;4391641;32;20580;-60
2021/11/23 04:53:11;;;;;;;416.10;397.73;;;5.80;99.90;;;;;;4391570;32;20156;-61
2021/11/23 04:55:40;;;;;;;406.00;388.23;;;5.80;99.90;;;;;;4392049;32;20160;-61
2021/11/23 04:58:06;;;;;;;409.47;391.50;;;5.80;99.90;;;;;;4378904;32;20179;-61
2021/11/23 05:00:33;;;;;;;399.53;382.17;;;5.80;99.90;;;;;;4391315;32;20596;-61
2021/11/23 05:03:00;;;;;;;415.97;398.07;;;5.90;99.90;;;;;;4391565;32;20222;-60
2021/11/23 05:05:27;;;;;;;396.63;379.67;;;5.80;99.90;;;;;;4391441;32;20251;-60
2021/11/23 05:07:54;;;;;;;422.53;403.97;;;5.80;99.90;;;;;;4391642;32;20156;-60
2021/11/23 05:10:21;;;;;;;425.03;406.27;;;5.90;99.90;;;;;;4390365;32;20214;-61
2021/11/23 05:12:50;;;;;;;414.50;396.17;;;5.90;99.90;;;;;;4391382;32;20163;-61
2021/11/23 05:15:16;;;;;;;411.00;393.17;;;5.90;99.90;;;;;;4391043;32;20197;-61
2021/11/23 05:17:43;;;;;;;418.03;399.67;;;5.90;99.90;;;;;;4389909;32;20198;-60
2021/11/23 05:20:11;;;;;;;411.57;393.50;;;6.00;99.90;;;;;;4390134;32;20273;-61
2021/11/23 05:22:39;;;;;;;406.73;389.07;;;6.00;99.90;;;;;;4391040;32;20184;-61
2021/11/23 05:25:07;;;;;;;416.77;398.40;;;6.00;99.90;;;;;;4394436;32;20496;-61
2021/11/23 05:27:34;;;;;;;415.13;397.20;;;6.00;99.90;;;;;;4394175;32;20160;-61
2021/11/23 05:30:04;;;;;;;421.43;402.90;;;6.00;99.90;;;;;;4393691;32;20164;-60
2021/11/23 05:32:31;;;;;;;417.77;399.47;;;6.00;99.90;;;;;;4392868;32;20211;-60
2021/11/23 05:34:58;;;;;;;435.83;416.87;;;6.00;99.90;;;;;;4392475;32;20204;-61
2021/11/23 05:37:25;;;;;;;413.33;395.23;;;6.00;99.90;;;;;;4392729;32;20219;-61
2021/11/23 05:39:51;;;;;;;415.77;397.70;;;6.00;99.90;;;;;;4392371;32;20171;-61
2021/11/23 05:42:18;;;;;;;408.90;390.83;;;6.00;99.90;;;;;;4392603;32;20208;-61
2021/11/23 05:44:45;;;;;;;417.07;398.73;;;6.00;99.90;;;;;;4391806;32;20227;-61
2021/11/23 05:47:13;;;;;;;422.70;403.97;;;6.10;99.90;;;;;;4392261;32;20188;-61
2021/11/23 05:49:41;;;;;;;417.80;399.53;;;6.10;99.90;;;;;;4392016;32;20671;-61
2021/11/23 05:52:08;;;;;;;410.37;392.23;;;6.10;99.90;;;;;;4392442;32;20623;-61
2021/11/23 05:54:35;;;;;;;430.53;411.50;;;6.10;99.90;;;;;;4391561;32;20198;-61
2021/11/23 05:57:02;;;;;;;421.20;402.60;;;6.10;99.90;;;;;;4392512;32;20156;-61
2021/11/23 05:59:29;;;;;;;422.60;404.00;;;6.10;99.90;;;;;;4392791;32;20644;-60
2021/11/23 06:01:56;;;;;;;445.13;425.70;;;6.10;99.90;;;;;;4392117;32;20202;-60
2021/11/23 06:04:24;;;;;;;414.80;396.67;;;6.20;99.90;;;;;;4387923;32;20179;-61
2021/11/23 06:06:51;;;;;;;416.43;398.33;;;6.20;99.90;;;;;;4391324;32;20251;-61
2021/11/23 06:09:18;;;;;;;422.50;404.00;;;6.20;99.90;;;;;;4392372;32;20190;-61
2021/11/23 06:11:44;;;;;;;412.33;394.33;;;6.00;99.90;;;;;;4391226;32;20159;-61
2021/11/23 06:14:11;;;;;;;420.03;401.10;;;6.00;99.90;;;;;;4392424;32;20263;-61
2021/11/23 06:16:43;;;;;;;445.03;425.23;;;6.10;99.90;;;;;;4391659;32;20172;-61
2021/11/23 06:19:10;;;;;;;434.33;414.53;;;6.10;99.90;;;;;;4393095;32;20217;-60
2021/11/23 06:21:38;;;;;;;429.23;410.53;;;6.00;99.90;;;;;;4391111;32;20215;-61
2021/11/23 06:24:05;;;;;;;430.80;411.67;;;6.10;99.90;;;;;;4388517;32;20611;-61
2021/11/23 06:26:33;;;;;;;421.40;403.07;;;6.10;99.90;;;;;;4391174;32;20190;-60
2021/11/23 06:29:00;;;;;;;417.17;398.67;;;6.10;99.90;;;;;;4390626;32;20223;-61
2021/11/23 06:31:27;;;;;;;424.40;405.67;;;6.10;99.90;;;;;;4389902;32;20265;-61
2021/11/23 06:33:55;;;;;;;434.77;415.20;;;6.10;99.90;;;;;;4388504;32;20160;-61
2021/11/23 06:36:21;;;;;;;427.37;408.47;;;6.10;99.90;;;;;;4390518;32;20164;-61
2021/11/23 06:38:50;;;;;;;428.43;409.43;;;6.10;99.90;;;;;;4390798;32;20231;-61
2021/11/23 06:41:17;;;;;;;422.77;404.03;;;6.10;99.90;;;;;;4388015;32;20156;-60
2021/11/23 06:43:44;;;;;;;432.33;413.20;;;6.10;99.90;;;;;;4389201;32;20593;-61
2021/11/23 06:46:11;;;;;;;435.30;416.27;;;6.10;99.90;;;;;;4390271;32;20258;-61
2021/11/23 06:48:38;;;;;;;420.77;402.33;;;6.10;99.90;;;;;;4386605;32;20285;-61
2021/11/23 06:51:05;;;;;;;456.63;436.60;;;6.20;99.90;;;;;;4388194;32;20164;-61
2021/11/23 06:53:32;;;;;;;426.03;407.23;;;6.20;99.90;;;;;;4391295;32;20592;-60
2021/11/23 06:56:00;;;;;;;429.40;410.03;;;6.30;99.90;;;;;;4390448;32;20222;-60
2021/11/23 06:58:27;;;;;;;430.70;411.87;;;6.30;99.90;;;;;;4386565;32;20156;-61
2021/11/23 07:00:54;;;;;;;432.80;413.47;;;6.30;99.90;;;;;;4393102;32;20511;-60
2021/11/23 07:03:21;;;;;;;429.73;410.87;;;6.30;99.90;;;;;;4389752;32;20497;-59
2021/11/23 07:05:48;;;;;;;428.63;409.50;;;6.20;99.90;;;;;;4388591;32;20172;-60
2021/11/23 07:08:14;;;;;;;439.37;419.93;;;6.30;99.90;;;;;;4384706;32;20620;-61
2021/11/23 07:10:42;;;;;;;433.43;414.17;;;6.30;99.90;;;;;;4388388;32;20199;-60
2021/11/23 07:13:11;;;;;;;434.40;414.67;;;6.30;99.90;;;;;;4389821;32;20187;-60
2021/11/23 07:15:38;;;;;;;434.83;415.43;;;6.40;99.90;;;;;;4387769;32;20172;-60
2021/11/23 07:18:04;;;;;;;433.97;414.83;;;6.40;99.90;;;;;;4376142;32;20172;-61
2021/11/23 07:20:31;;;;;;;437.27;417.80;;;6.40;99.90;;;;;;4388245;32;20219;-61
2021/11/23 07:22:58;;;;;;;448.13;427.90;;;6.40;99.90;;;;;;4391195;32;20211;-60
2021/11/23 07:25:25;;;;;;;445.33;425.77;;;6.40;99.90;;;;;;4390282;32;20168;-60
2021/11/23 07:27:53;;;;;;;452.77;432.80;;;6.40;99.90;;;;;;4389138;32;20207;-60
2021/11/23 07:30:21;;;;;;;435.47;416.13;;;6.50;99.90;;;;;;4391014;32;20160;-63
2021/11/23 07:32:48;;;;;;;463.37;442.87;;;6.50;99.90;;;;;;4382331;32;20235;-60
2021/11/23 07:35:18;;;;;;;438.33;418.93;;;6.60;99.90;;;;;;4385242;32;20224;-61
2021/11/23 07:37:45;;;;;;;445.23;425.40;;;6.60;99.90;;;;;;4391461;32;20184;-60
2021/11/23 07:40:13;;;;;;;444.37;424.40;;;6.80;99.90;;;;;;4392161;32;20262;-60
2021/11/23 07:42:41;;;;;;;467.67;446.63;;;6.90;99.90;;;;;;4392131;32;20535;-60
2021/11/23 07:45:09;;;;;;;448.30;428.30;;;6.90;99.90;;;;;;4390285;32;20238;-60
2021/11/23 07:47:37;;;;;;;451.13;430.43;;;6.90;99.90;;;;;;4391155;32;20233;-60
2021/11/23 07:50:05;;;;;;;460.03;438.90;;;6.90;99.90;;;;;;4389535;32;20174;-60
2021/11/23 07:52:33;;;;;;;477.77;456.30;;;6.90;99.90;;;;;;4392219;32;20674;-60
2021/11/23 07:55:00;;;;;;;480.63;458.53;;;6.90;99.90;;;;;;4393612;32;20213;-59
2021/11/23 07:57:27;;;;;;;466.20;444.40;;;7.00;99.90;;;;;;4384549;32;20250;-60
2021/11/23 07:59:54;;;;;;;474.40;452.60;;;7.10;99.90;;;;;;4389778;32;20168;-61
2021/11/23 08:02:21;;;;;;;470.27;448.80;;;7.30;99.90;;;;;;4385201;32;20596;-60
2021/11/23 08:04:49;;;;;;;493.17;470.13;;;7.30;99.90;;;;;;4392780;32;20199;-60
2021/11/23 08:07:15;;;;;;;480.77;458.50;;;7.30;99.90;;;;;;4389165;32;20152;-60
2021/11/23 08:09:44;;;;;;;475.97;454.20;;;7.30;99.90;;;;;;4390064;32;20216;-60
2021/11/23 08:12:11;;;;;;;484.00;461.70;;;7.40;99.90;;;;;;4389848;32;20160;-60
2021/11/23 08:14:38;;;;;;;478.37;455.53;;;7.30;99.90;;;;;;4391562;32;20167;-60
2021/11/23 08:17:05;;;;;;;487.83;465.03;;;7.40;99.90;;;;;;4389984;32;20156;-60
2021/11/23 08:19:31;;;;;;;481.43;459.30;;;7.40;99.90;;;;;;4388596;32;20217;-60
2021/11/23 08:22:00;;;;;;;491.83;468.70;;;7.40;99.90;;;;;;4391357;32;20195;-60
2021/11/23 08:24:26;;;;;;;487.50;464.73;;;7.50;99.90;;;;;;4388530;32;20173;-60
2021/11/23 08:26:56;;;;;;;488.17;465.53;;;7.60;99.90;;;;;;4387694;32;20441;-61
2021/11/23 08:29:23;;;;;;;489.20;466.13;;;7.60;99.90;;;;;;4391437;32;20160;-60
2021/11/23 08:31:50;;;;;;;502.77;479.17;;;7.70;99.90;;;;;;4391304;32;20596;-60
2021/11/23 08:34:18;;;;;;;494.60;471.47;;;7.80;99.90;;;;;;4389025;32;20153;-60
2021/11/23 08:36:45;;;;;;;491.07;468.20;;;7.90;99.90;;;;;;4389706;32;20160;-60
2021/11/23 08:39:13;;;;;;;490.27;467.27;;;8.00;99.90;;;;;;4388829;32;20192;-60
2021/11/23 08:41:40;;;;;;;498.47;474.93;;;8.10;99.90;;;;;;4378579;32;20173;-60
2021/11/23 08:44:07;;;;;;;492.03;468.97;;;8.30;99.90;;;;;;4391435;32;20565;-60
2021/11/23 08:46:34;;;;;;;491.60;468.87;;;8.60;99.90;;;;;;4390779;32;20163;-59
2021/11/23 08:49:04;;;;;;;514.20;490.03;;;8.70;99.90;;;;;;4390730;32;20234;-61
2021/11/23 08:51:34;;;;;;;503.90;480.40;;;8.60;99.90;;;;;;4388962;32;20221;-60
2021/11/23 08:54:01;;;;;;;518.17;492.63;;;8.60;99.90;;;;;;4384472;32;20825;-59
2021/11/23 08:56:34;;;;;;;508.03;482.77;;;8.60;99.90;;;;;;4386326;32;20247;-60
2021/11/23 08:59:02;;;;;;;497.33;473.73;;;8.50;99.90;;;;;;4392266;32;20220;-59
2021/11/23 09:01:30;;;;;;;517.03;492.27;;;8.60;99.90;;;;;;4393095;32;20168;-59
2021/11/23 09:04:03;;;;;;;529.40;503.87;;;8.70;99.90;;;;;;4389771;32;20500;-60
2021/11/23 09:06:30;;;;;;;527.27;501.83;;;8.70;99.90;;;;;;4390143;32;20215;-60
2021/11/23 09:08:58;;;;;;;522.57;497.50;;;8.80;99.90;;;;;;4391248;32;20155;-60
2021/11/23 09:11:26;;;;;;;534.37;508.47;;;8.90;99.90;;;;;;4383564;32;20163;-60
2021/11/23 09:13:55;;;;;;;543.67;517.73;;;8.90;99.90;;;;;;4390377;32;20246;-60
2021/11/23 09:16:24;;;;;;;539.00;513.10;;;9.00;99.90;;;;;;4391540;32;20190;-60
2021/11/23 09:18:51;;;;;;;533.80;507.23;;;9.20;99.90;;;;;;4392586;32;20181;-60
2021/11/23 09:21:19;;;;;;;541.97;515.97;;;9.40;99.90;;;;;;4392821;32;20172;-60
2021/11/23 09:23:46;;;;;;;527.50;502.17;;;9.50;99.90;;;;;;4392675;32;20237;-60
2021/11/23 09:26:13;;;;;;;528.97;503.33;;;9.50;99.90;;;;;;4393525;32;20211;-60
2021/11/23 09:28:40;;;;;;;547.47;520.90;;;9.60;99.90;;;;;;4393299;32;20581;-60
2021/11/23 09:31:08;;;;;;;547.10;520.40;;;9.70;99.90;;;;;;4392550;32;20457;-59
2021/11/23 09:33:35;;;;;;;553.53;525.90;;;9.80;99.90;;;;;;4391666;32;20161;-60
2021/11/23 09:36:02;;;;;;;562.77;534.57;;;10.00;99.90;;;;;;4386840;32;20159;-60
2021/11/23 09:38:28;;;;;;;553.23;526.30;;;10.10;99.90;;;;;;4392187;32;20157;-60
2021/11/23 09:40:56;;;;;;;562.33;534.33;;;10.20;99.90;;;;;;4390672;32;20178;-60
2021/11/23 09:43:22;;;;;;;578.87;549.57;;;10.30;99.90;;;;;;4392279;32;20211;-60
2021/11/23 09:45:49;;;;;;;597.10;567.00;;;10.40;99.90;;;;;;4394059;32;20197;-60
2021/11/23 09:48:20;;;;;;;575.50;546.80;;;10.50;99.90;;;;;;4386747;32;20165;-60
2021/11/23 09:50:48;;;;;;;568.03;539.60;;;10.50;99.90;;;;;;4391876;32;20160;-61
2021/11/23 09:53:17;;;;;;;577.77;548.97;;;10.50;99.90;;;;;;4393749;32;20196;-60
2021/11/23 09:55:45;;;;;;;588.40;558.07;;;10.50;99.90;;;;;;4393662;32;20566;-60
2021/11/23 09:58:12;;;;;;;571.53;542.23;;;10.50;99.90;;;;;;4393712;32;20611;-60
2021/11/23 10:00:40;;;;;;;586.23;556.60;;;10.40;99.90;;;;;;4393921;32;20217;-60
2021/11/23 10:03:12;;;;;;;569.57;540.77;;;10.40;99.90;;;;;;4393091;32;20587;-61
2021/11/23 10:05:42;;;;;;;566.83;538.60;;;10.10;99.90;;;;;;4389546;32;20159;-60
2021/11/23 10:08:13;;;;;;;579.93;550.60;;;9.90;99.90;;;;;;4388517;32;20166;-61
2021/11/23 10:10:43;;;;;;;591.77;561.57;;;9.90;99.90;;;;;;4390128;32;20164;-61
2021/11/23 10:13:10;;;;;;;587.47;557.50;;;9.80;99.90;;;;;;4392041;32;20195;-60
2021/11/23 10:15:41;;;;;;;586.30;556.37;;;9.70;99.90;;;;;;4393867;32;20157;-60
2021/11/23 10:18:10;;;;;;;566.80;538.20;;;9.90;99.90;;;;;;4392341;32;20221;-60
2021/11/23 10:20:39;;;;;;;574.37;545.23;;;10.20;99.90;;;;;;4392242;32;20153;-60
2021/11/23 10:23:19;;;;;;;562.23;534.27;;;10.20;99.90;;;;;;4391325;32;20503;-61
2021/11/23 10:25:49;;;;;;;563.43;535.53;;;10.20;99.90;;;;;;4393804;32;20219;-60
2021/11/23 10:28:16;;;;;;;568.80;540.50;;;10.10;99.90;;;;;;4392011;32;20176;-61
2021/11/23 10:30:46;;;;;;;590.30;560.27;;;10.00;99.90;;;;;;4393385;32;20181;-59
2021/11/23 10:33:16;;;;;;;579.50;550.43;;;10.30;99.90;;;;;;4393733;32;20230;-59
2021/11/23 10:35:44;;;;;;;560.57;532.00;;;10.60;99.90;;;;;;4391506;32;20203;-60
2021/11/23 10:38:14;;;;;;;586.27;556.70;;;11.10;99.90;;;;;;4392961;32;20533;-60
2021/11/23 10:40:43;;;;;;;584.90;555.47;;;11.40;99.90;;;;;;4392053;32;20480;-60
2021/11/23 10:43:12;;;;;;;574.30;545.37;;;11.60;99.90;;;;;;4392069;32;20184;-60
2021/11/23 10:45:40;;;;;;;571.53;542.93;;;11.60;99.90;;;;;;4392657;32;20489;-60
2021/11/23 10:48:09;;;;;;;590.30;560.73;;;11.50;99.90;;;;;;4393300;32;20155;-59
2021/11/23 10:50:38;;;;;;;587.03;557.33;;;11.30;99.90;;;;;;4391568;32;20159;-60
2021/11/23 10:53:12;;;;;;;582.03;552.73;;;11.20;99.90;;;;;;4378600;32;20241;-60
2021/11/23 10:55:42;;;;;;;558.67;530.77;;;10.90;99.90;;;;;;4390840;32;20206;-60
2021/11/23 10:58:11;;;;;;;577.03;548.53;;;10.60;99.90;;;;;;4393076;32;20156;-60
2021/11/23 11:00:40;;;;;;;577.03;548.17;;;10.40;99.90;;;;;;4391716;32;20152;-60
2021/11/23 11:03:08;;;;;;;581.57;551.90;;;10.30;99.90;;;;;;4390714;32;20175;-60
2021/11/23 11:05:38;;;;;;;557.90;530.13;;;10.30;99.90;;;;;;4391163;32;20205;-60
2021/11/23 11:08:06;;;;;;;557.93;530.80;;;10.20;99.90;;;;;;4391609;32;20212;-60
2021/11/23 11:10:35;;;;;;;562.83;535.10;;;10.00;99.90;;;;;;4383018;32;20205;-60
2021/11/23 11:13:06;;;;;;;566.57;538.67;;;9.80;99.90;;;;;;4391937;32;20192;-60
2021/11/23 11:15:36;;;;;;;556.20;528.80;;;9.70;99.90;;;;;;4392823;32;20219;-60
2021/11/23 11:18:07;;;;;;;541.93;515.80;;;9.80;99.90;;;;;;4391226;32;20217;-60
2021/11/23 11:20:45;;;;;;;545.60;518.73;;;9.80;99.90;;;;;;4387327;32;20249;-60
2021/11/23 11:23:15;;;;;;;554.47;527.53;;;9.90;99.90;;;;;;4389626;32;20183;-61
2021/11/23 11:25:55;;;;;;;554.57;527.77;;;10.00;99.90;;;;;;4391225;32;20182;-60
2021/11/23 11:28:44;;;;;;;531.43;505.80;;;10.00;99.90;;;;;;4379193;32;20524;-60
2021/11/23 11:31:46;;;;;;;531.80;506.80;;;10.10;99.90;;;;;;4390759;32;20544;-60
2021/11/23 11:34:32;;;;;;;543.93;517.53;;;10.20;99.90;;;;;;4391198;32;20621;-60
2021/11/23 11:37:09;;;;;;;532.73;507.53;;;10.20;99.90;;;;;;4391246;32;20182;-60
2021/11/23 11:39:53;;;;;;;538.97;513.00;;;10.30;99.90;;;;;;4390561;32;20159;-62
2021/11/23 11:42:52;;;;;;;530.80;505.13;;;10.20;99.90;;;;;;4383586;32;20650;-61
2021/11/23 11:45:24;;;;;;;530.03;505.17;;;10.30;99.90;;;;;;4388586;32;20216;-60
2021/11/23 11:47:58;;;;;;;532.03;506.70;;;10.40;99.90;;;;;;4386852;32;20161;-60
2021/11/23 11:50:27;;;;;;;532.63;506.83;;;10.20;99.90;;;;;;4393941;32;20169;-61
2021/11/23 11:53:10;;;;;;;552.97;526.57;;;10.40;99.90;;;;;;4392096;32;20163;-61
2021/11/23 11:55:48;;;;;;;535.50;509.83;;;10.50;99.90;;;;;;4392640;32;20170;-61
2021/11/23 11:58:53;;;;;;;543.73;516.97;;;10.30;99.90;;;;;;4389580;32;20222;-59
2021/11/23 12:01:24;;;;;;;531.87;506.47;;;10.30;99.90;;;;;;4391332;32;20161;-59
2021/11/23 12:04:03;;;;;;;555.63;528.40;;;10.30;99.90;;;;;;4388651;32;20175;-59
2021/11/23 12:07:16;;;;;;;534.43;509.07;;;10.30;99.90;;;;;;4388755;32;20178;-57
2021/11/23 12:09:49;;;;;;;546.17;519.97;;;10.50;99.90;;;;;;4340989;32;20243;-61
2021/11/23 12:12:45;;;;;;;557.40;530.20;;;10.70;99.90;;;;;;4342471;32;20242;-59
2021/11/23 12:15:50;;;;;;;552.70;526.33;;;10.80;99.90;;;;;;4338094;33;20208;-61
2021/11/23 12:18:53;;;;;;;531.93;506.20;;;10.60;99.90;;;;;;4311046;33;20237;-62
2021/11/23 12:21:21;;;;;;;558.43;531.30;;;10.40;99.90;;;;;;4311355;33;20241;-61
2021/11/23 12:23:53;;;;;;;564.30;536.20;;;10.10;99.90;;;;;;4311756;33;20455;-61